sensor_id;sensor_type;location;lat;lon;timestamp;P1;durP1;ratioP1;P2;durP2;ratioP2
54384;SDS011;40284;52.878;5.998;2023-05-15T00:01:01;34.72;;;28.00;;
54384;SDS011;40284;52.878;5.998;2023-05-15T00:03:27;34.90;;;28.30;;
54384;SDS011;40284;52.878;5.998;2023-05-15T00:05:53;43.03;;;29.90;;
54384;SDS011;40284;52.878;5.998;2023-05-15T00:08:19;35.17;;;30.08;;
54384;SDS011;40284;52.878;5.998;2023-05-15T00:10:45;34.80;;;29.30;;
54384;SDS011;40284;52.878;5.998;2023-05-15T00:13:11;39.40;;;31.35;;
54384;SDS011;40284;52.878;5.998;2023-05-15T00:15:37;37.45;;;30.67;;
54384;SDS011;40284;52.878;5.998;2023-05-15T00:18:03;38.28;;;30.52;;
54384;SDS011;40284;52.878;5.998;2023-05-15T00:20:29;40.90;;;30.25;;
54384;SDS011;40284;52.878;5.998;2023-05-15T00:22:55;40.45;;;30.55;;
54384;SDS011;40284;52.878;5.998;2023-05-15T00:25:22;41.85;;;29.85;;
54384;SDS011;40284;52.878;5.998;2023-05-15T00:27:48;43.65;;;31.50;;
54384;SDS011;40284;52.878;5.998;2023-05-15T00:30:14;40.42;;;32.75;;
54384;SDS011;40284;52.878;5.998;2023-05-15T00:32:40;41.13;;;31.60;;
54384;SDS011;40284;52.878;5.998;2023-05-15T00:35:06;46.70;;;30.90;;
54384;SDS011;40284;52.878;5.998;2023-05-15T00:37:32;44.97;;;33.20;;
54384;SDS011;40284;52.878;5.998;2023-05-15T00:39:58;43.72;;;31.75;;
54384;SDS011;40284;52.878;5.998;2023-05-15T00:42:24;39.80;;;31.20;;
54384;SDS011;40284;52.878;5.998;2023-05-15T00:44:51;43.42;;;32.00;;
54384;SDS011;40284;52.878;5.998;2023-05-15T00:47:18;38.90;;;30.30;;
54384;SDS011;40284;52.878;5.998;2023-05-15T00:49:46;36.88;;;29.45;;
54384;SDS011;40284;52.878;5.998;2023-05-15T00:52:12;69.03;;;35.08;;
54384;SDS011;40284;52.878;5.998;2023-05-15T00:54:38;42.05;;;32.00;;
54384;SDS011;40284;52.878;5.998;2023-05-15T00:57:05;40.15;;;30.55;;
54384;SDS011;40284;52.878;5.998;2023-05-15T00:59:33;47.20;;;33.40;;
54384;SDS011;40284;52.878;5.998;2023-05-15T01:01:59;43.20;;;30.55;;
54384;SDS011;40284;52.878;5.998;2023-05-15T01:04:25;43.38;;;31.60;;
54384;SDS011;40284;52.878;5.998;2023-05-15T01:06:52;41.15;;;29.80;;
54384;SDS011;40284;52.878;5.998;2023-05-15T01:09:18;41.83;;;30.92;;
54384;SDS011;40284;52.878;5.998;2023-05-15T01:11:44;39.58;;;31.50;;
54384;SDS011;40284;52.878;5.998;2023-05-15T01:14:11;37.08;;;29.52;;
54384;SDS011;40284;52.878;5.998;2023-05-15T01:16:37;37.85;;;29.35;;
54384;SDS011;40284;52.878;5.998;2023-05-15T01:19:03;45.00;;;30.27;;
54384;SDS011;40284;52.878;5.998;2023-05-15T01:24:05;35.88;;;27.85;;
54384;SDS011;40284;52.878;5.998;2023-05-15T01:31:55;38.60;;;29.05;;
54384;SDS011;40284;52.878;5.998;2023-05-15T01:34:22;40.30;;;28.58;;
54384;SDS011;40284;52.878;5.998;2023-05-15T01:36:55;39.78;;;28.27;;
54384;SDS011;40284;52.878;5.998;2023-05-15T01:39:22;38.78;;;28.25;;
54384;SDS011;40284;52.878;5.998;2023-05-15T01:44:33;44.72;;;28.10;;
54384;SDS011;40284;52.878;5.998;2023-05-15T01:47:01;37.47;;;27.27;;
54384;SDS011;40284;52.878;5.998;2023-05-15T01:49:29;38.10;;;27.92;;
54384;SDS011;40284;52.878;5.998;2023-05-15T01:52:05;33.25;;;26.08;;
54384;SDS011;40284;52.878;5.998;2023-05-15T01:54:33;41.67;;;27.30;;
54384;SDS011;40284;52.878;5.998;2023-05-15T01:57:00;36.83;;;27.92;;
54384;SDS011;40284;52.878;5.998;2023-05-15T01:59:27;42.92;;;27.73;;
54384;SDS011;40284;52.878;5.998;2023-05-15T02:01:54;31.35;;;25.85;;
54384;SDS011;40284;52.878;5.998;2023-05-15T02:04:21;40.30;;;27.40;;
54384;SDS011;40284;52.878;5.998;2023-05-15T02:06:48;37.35;;;26.73;;
54384;SDS011;40284;52.878;5.998;2023-05-15T02:09:15;33.58;;;26.15;;
54384;SDS011;40284;52.878;5.998;2023-05-15T02:11:41;38.33;;;24.80;;
54384;SDS011;40284;52.878;5.998;2023-05-15T02:14:08;38.53;;;27.33;;
54384;SDS011;40284;52.878;5.998;2023-05-15T02:16:35;33.50;;;26.95;;
54384;SDS011;40284;52.878;5.998;2023-05-15T02:19:01;38.25;;;26.98;;
54384;SDS011;40284;52.878;5.998;2023-05-15T02:21:27;33.97;;;26.95;;
54384;SDS011;40284;52.878;5.998;2023-05-15T02:23:54;36.45;;;26.42;;
54384;SDS011;40284;52.878;5.998;2023-05-15T02:28:50;40.42;;;30.75;;
54384;SDS011;40284;52.878;5.998;2023-05-15T02:31:20;36.50;;;29.88;;
54384;SDS011;40284;52.878;5.998;2023-05-15T02:33:54;43.30;;;29.73;;
54384;SDS011;40284;52.878;5.998;2023-05-15T02:36:27;36.60;;;27.20;;
54384;SDS011;40284;52.878;5.998;2023-05-15T02:38:54;44.50;;;30.90;;
54384;SDS011;40284;52.878;5.998;2023-05-15T02:41:21;44.88;;;32.47;;
54384;SDS011;40284;52.878;5.998;2023-05-15T02:43:49;42.55;;;29.88;;
54384;SDS011;40284;52.878;5.998;2023-05-15T02:46:15;36.75;;;27.92;;
54384;SDS011;40284;52.878;5.998;2023-05-15T02:48:42;36.70;;;28.13;;
54384;SDS011;40284;52.878;5.998;2023-05-15T02:51:08;36.40;;;26.05;;
54384;SDS011;40284;52.878;5.998;2023-05-15T02:53:38;35.95;;;27.23;;
54384;SDS011;40284;52.878;5.998;2023-05-15T02:56:04;42.17;;;27.83;;
54384;SDS011;40284;52.878;5.998;2023-05-15T02:58:31;34.08;;;25.80;;
54384;SDS011;40284;52.878;5.998;2023-05-15T03:00:57;40.50;;;29.70;;
54384;SDS011;40284;52.878;5.998;2023-05-15T03:03:23;37.60;;;27.17;;
54384;SDS011;40284;52.878;5.998;2023-05-15T03:05:49;34.95;;;24.60;;
54384;SDS011;40284;52.878;5.998;2023-05-15T03:08:16;29.60;;;23.35;;
54384;SDS011;40284;52.878;5.998;2023-05-15T03:10:43;31.90;;;23.33;;
54384;SDS011;40284;52.878;5.998;2023-05-15T03:13:09;29.77;;;23.70;;
54384;SDS011;40284;52.878;5.998;2023-05-15T03:15:35;30.80;;;22.67;;
54384;SDS011;40284;52.878;5.998;2023-05-15T03:18:01;30.42;;;23.13;;
54384;SDS011;40284;52.878;5.998;2023-05-15T03:20:27;26.90;;;22.40;;
54384;SDS011;40284;52.878;5.998;2023-05-15T03:22:53;29.88;;;21.33;;
54384;SDS011;40284;52.878;5.998;2023-05-15T03:25:20;31.42;;;22.58;;
54384;SDS011;40284;52.878;5.998;2023-05-15T03:27:46;27.67;;;21.73;;
54384;SDS011;40284;52.878;5.998;2023-05-15T03:30:13;28.45;;;22.45;;
54384;SDS011;40284;52.878;5.998;2023-05-15T03:32:39;31.35;;;22.08;;
54384;SDS011;40284;52.878;5.998;2023-05-15T03:35:05;32.33;;;24.38;;
54384;SDS011;40284;52.878;5.998;2023-05-15T03:37:31;31.10;;;23.42;;
54384;SDS011;40284;52.878;5.998;2023-05-15T03:39:57;37.78;;;23.98;;
54384;SDS011;40284;52.878;5.998;2023-05-15T03:42:23;32.83;;;23.20;;
54384;SDS011;40284;52.878;5.998;2023-05-15T03:44:49;32.67;;;23.40;;
54384;SDS011;40284;52.878;5.998;2023-05-15T03:47:16;32.60;;;22.83;;
54384;SDS011;40284;52.878;5.998;2023-05-15T03:49:42;34.63;;;24.55;;
54384;SDS011;40284;52.878;5.998;2023-05-15T03:52:08;37.78;;;25.73;;
54384;SDS011;40284;52.878;5.998;2023-05-15T03:54:35;33.53;;;25.52;;
54384;SDS011;40284;52.878;5.998;2023-05-15T03:57:01;37.00;;;25.58;;
54384;SDS011;40284;52.878;5.998;2023-05-15T03:59:30;31.35;;;24.85;;
54384;SDS011;40284;52.878;5.998;2023-05-15T04:01:57;35.83;;;24.92;;
54384;SDS011;40284;52.878;5.998;2023-05-15T04:04:23;37.70;;;26.25;;
54384;SDS011;40284;52.878;5.998;2023-05-15T04:06:49;35.67;;;26.67;;
54384;SDS011;40284;52.878;5.998;2023-05-15T04:09:15;34.75;;;25.45;;
54384;SDS011;40284;52.878;5.998;2023-05-15T04:11:41;39.05;;;26.50;;
54384;SDS011;40284;52.878;5.998;2023-05-15T04:14:08;34.92;;;26.45;;
54384;SDS011;40284;52.878;5.998;2023-05-15T04:16:34;36.95;;;26.10;;
54384;SDS011;40284;52.878;5.998;2023-05-15T04:19:00;36.10;;;25.55;;
54384;SDS011;40284;52.878;5.998;2023-05-15T04:21:26;31.23;;;24.52;;
54384;SDS011;40284;52.878;5.998;2023-05-15T04:23:52;30.80;;;24.58;;
54384;SDS011;40284;52.878;5.998;2023-05-15T04:26:18;31.35;;;23.98;;
54384;SDS011;40284;52.878;5.998;2023-05-15T04:28:44;31.75;;;23.60;;
54384;SDS011;40284;52.878;5.998;2023-05-15T04:31:10;32.17;;;22.52;;
54384;SDS011;40284;52.878;5.998;2023-05-15T04:33:37;30.55;;;22.27;;
54384;SDS011;40284;52.878;5.998;2023-05-15T04:36:03;27.73;;;23.02;;
54384;SDS011;40284;52.878;5.998;2023-05-15T04:38:30;36.28;;;24.75;;
54384;SDS011;40284;52.878;5.998;2023-05-15T04:40:56;31.20;;;24.73;;
54384;SDS011;40284;52.878;5.998;2023-05-15T04:43:22;33.78;;;25.27;;
54384;SDS011;40284;52.878;5.998;2023-05-15T04:45:48;34.90;;;24.98;;
54384;SDS011;40284;52.878;5.998;2023-05-15T04:48:14;46.53;;;27.00;;
54384;SDS011;40284;52.878;5.998;2023-05-15T04:50:43;32.55;;;26.45;;
54384;SDS011;40284;52.878;5.998;2023-05-15T04:53:09;34.58;;;26.88;;
54384;SDS011;40284;52.878;5.998;2023-05-15T04:55:35;36.65;;;25.75;;
54384;SDS011;40284;52.878;5.998;2023-05-15T04:58:01;34.78;;;25.95;;
54384;SDS011;40284;52.878;5.998;2023-05-15T05:00:27;32.28;;;24.65;;
54384;SDS011;40284;52.878;5.998;2023-05-15T05:02:53;30.13;;;24.25;;
54384;SDS011;40284;52.878;5.998;2023-05-15T05:05:20;33.65;;;24.42;;
54384;SDS011;40284;52.878;5.998;2023-05-15T05:07:46;32.03;;;25.00;;
54384;SDS011;40284;52.878;5.998;2023-05-15T05:10:12;31.98;;;23.25;;
54384;SDS011;40284;52.878;5.998;2023-05-15T05:12:38;32.45;;;24.85;;
54384;SDS011;40284;52.878;5.998;2023-05-15T05:15:04;29.92;;;24.50;;
54384;SDS011;40284;52.878;5.998;2023-05-15T05:17:30;30.90;;;24.55;;
54384;SDS011;40284;52.878;5.998;2023-05-15T05:19:56;30.98;;;25.85;;
54384;SDS011;40284;52.878;5.998;2023-05-15T05:22:23;28.48;;;23.42;;
54384;SDS011;40284;52.878;5.998;2023-05-15T05:24:49;30.67;;;25.08;;
54384;SDS011;40284;52.878;5.998;2023-05-15T05:27:15;29.35;;;23.65;;
54384;SDS011;40284;52.878;5.998;2023-05-15T05:29:41;29.08;;;24.65;;
54384;SDS011;40284;52.878;5.998;2023-05-15T05:32:07;31.02;;;24.55;;
54384;SDS011;40284;52.878;5.998;2023-05-15T05:34:33;29.75;;;24.25;;
54384;SDS011;40284;52.878;5.998;2023-05-15T05:36:59;31.08;;;24.73;;
54384;SDS011;40284;52.878;5.998;2023-05-15T05:39:25;28.02;;;23.50;;
54384;SDS011;40284;52.878;5.998;2023-05-15T05:41:51;32.65;;;24.17;;
54384;SDS011;40284;52.878;5.998;2023-05-15T05:44:17;26.75;;;22.42;;
54384;SDS011;40284;52.878;5.998;2023-05-15T05:46:43;29.42;;;24.15;;
54384;SDS011;40284;52.878;5.998;2023-05-15T05:49:10;32.10;;;24.10;;
54384;SDS011;40284;52.878;5.998;2023-05-15T05:51:36;30.60;;;22.80;;
54384;SDS011;40284;52.878;5.998;2023-05-15T05:54:02;27.67;;;22.92;;
54384;SDS011;40284;52.878;5.998;2023-05-15T05:56:28;28.42;;;23.85;;
54384;SDS011;40284;52.878;5.998;2023-05-15T05:58:55;26.48;;;23.63;;
54384;SDS011;40284;52.878;5.998;2023-05-15T06:01:21;30.92;;;22.55;;
54384;SDS011;40284;52.878;5.998;2023-05-15T06:03:47;26.55;;;22.30;;
54384;SDS011;40284;52.878;5.998;2023-05-15T06:06:13;27.20;;;22.70;;
54384;SDS011;40284;52.878;5.998;2023-05-15T06:08:39;26.95;;;22.30;;
54384;SDS011;40284;52.878;5.998;2023-05-15T06:11:05;28.15;;;22.85;;
54384;SDS011;40284;52.878;5.998;2023-05-15T06:13:31;26.75;;;23.30;;
54384;SDS011;40284;52.878;5.998;2023-05-15T06:15:57;32.67;;;21.33;;
54384;SDS011;40284;52.878;5.998;2023-05-15T06:18:23;28.45;;;20.30;;
54384;SDS011;40284;52.878;5.998;2023-05-15T06:20:50;23.23;;;19.13;;
54384;SDS011;40284;52.878;5.998;2023-05-15T06:23:17;25.90;;;18.65;;
54384;SDS011;40284;52.878;5.998;2023-05-15T06:25:43;25.25;;;19.85;;
54384;SDS011;40284;52.878;5.998;2023-05-15T06:28:09;24.10;;;20.80;;
54384;SDS011;40284;52.878;5.998;2023-05-15T06:30:35;24.77;;;19.38;;
54384;SDS011;40284;52.878;5.998;2023-05-15T06:33:01;21.92;;;18.35;;
54384;SDS011;40284;52.878;5.998;2023-05-15T06:35:27;21.25;;;17.45;;
54384;SDS011;40284;52.878;5.998;2023-05-15T06:37:53;21.15;;;17.25;;
54384;SDS011;40284;52.878;5.998;2023-05-15T06:40:20;21.50;;;18.38;;
54384;SDS011;40284;52.878;5.998;2023-05-15T06:42:46;19.77;;;17.05;;
54384;SDS011;40284;52.878;5.998;2023-05-15T06:45:12;21.27;;;15.23;;
54384;SDS011;40284;52.878;5.998;2023-05-15T06:47:38;21.25;;;17.05;;
54384;SDS011;40284;52.878;5.998;2023-05-15T06:50:04;25.00;;;17.67;;
54384;SDS011;40284;52.878;5.998;2023-05-15T06:52:31;20.35;;;16.73;;
54384;SDS011;40284;52.878;5.998;2023-05-15T06:54:58;18.00;;;15.13;;
54384;SDS011;40284;52.878;5.998;2023-05-15T06:57:24;26.85;;;16.65;;
54384;SDS011;40284;52.878;5.998;2023-05-15T06:59:50;24.42;;;16.50;;
54384;SDS011;40284;52.878;5.998;2023-05-15T07:02:17;18.88;;;16.25;;
54384;SDS011;40284;52.878;5.998;2023-05-15T07:04:43;19.45;;;15.23;;
54384;SDS011;40284;52.878;5.998;2023-05-15T07:07:09;18.35;;;14.85;;
54384;SDS011;40284;52.878;5.998;2023-05-15T07:09:35;21.33;;;14.90;;
54384;SDS011;40284;52.878;5.998;2023-05-15T07:12:01;16.67;;;14.35;;
54384;SDS011;40284;52.878;5.998;2023-05-15T07:14:28;16.10;;;14.50;;
54384;SDS011;40284;52.878;5.998;2023-05-15T07:16:54;18.80;;;15.80;;
54384;SDS011;40284;52.878;5.998;2023-05-15T07:19:20;21.05;;;16.10;;
54384;SDS011;40284;52.878;5.998;2023-05-15T07:21:46;20.33;;;16.48;;
54384;SDS011;40284;52.878;5.998;2023-05-15T07:24:12;20.15;;;16.60;;
54384;SDS011;40284;52.878;5.998;2023-05-15T07:26:38;18.38;;;16.42;;
54384;SDS011;40284;52.878;5.998;2023-05-15T07:29:04;23.42;;;17.60;;
54384;SDS011;40284;52.878;5.998;2023-05-15T07:31:30;23.00;;;18.38;;
54384;SDS011;40284;52.878;5.998;2023-05-15T07:33:57;17.65;;;15.85;;
54384;SDS011;40284;52.878;5.998;2023-05-15T07:36:23;18.48;;;16.52;;
54384;SDS011;40284;52.878;5.998;2023-05-15T07:38:49;20.35;;;16.67;;
54384;SDS011;40284;52.878;5.998;2023-05-15T07:41:16;24.38;;;18.50;;
54384;SDS011;40284;52.878;5.998;2023-05-15T07:43:42;23.65;;;20.17;;
54384;SDS011;40284;52.878;5.998;2023-05-15T07:46:08;24.55;;;21.92;;
54384;SDS011;40284;52.878;5.998;2023-05-15T07:48:34;24.95;;;18.67;;
54384;SDS011;40284;52.878;5.998;2023-05-15T07:51:00;19.75;;;17.67;;
54384;SDS011;40284;52.878;5.998;2023-05-15T07:53:26;20.50;;;18.27;;
54384;SDS011;40284;52.878;5.998;2023-05-15T07:55:52;20.55;;;18.17;;
54384;SDS011;40284;52.878;5.998;2023-05-15T07:58:18;23.13;;;19.10;;
54384;SDS011;40284;52.878;5.998;2023-05-15T08:00:44;21.58;;;19.15;;
54384;SDS011;40284;52.878;5.998;2023-05-15T08:03:10;20.85;;;18.65;;
54384;SDS011;40284;52.878;5.998;2023-05-15T08:05:36;20.98;;;18.35;;
54384;SDS011;40284;52.878;5.998;2023-05-15T08:08:03;22.77;;;19.15;;
54384;SDS011;40284;52.878;5.998;2023-05-15T08:10:29;22.52;;;19.13;;
54384;SDS011;40284;52.878;5.998;2023-05-15T08:12:55;19.23;;;17.15;;
54384;SDS011;40284;52.878;5.998;2023-05-15T08:15:21;21.60;;;18.30;;
54384;SDS011;40284;52.878;5.998;2023-05-15T08:17:48;25.70;;;18.45;;
54384;SDS011;40284;52.878;5.998;2023-05-15T08:20:14;19.90;;;17.80;;
54384;SDS011;40284;52.878;5.998;2023-05-15T08:22:40;18.98;;;16.50;;
54384;SDS011;40284;52.878;5.998;2023-05-15T08:25:06;19.60;;;17.27;;
54384;SDS011;40284;52.878;5.998;2023-05-15T08:27:33;19.10;;;17.02;;
54384;SDS011;40284;52.878;5.998;2023-05-15T08:29:59;20.42;;;18.20;;
54384;SDS011;40284;52.878;5.998;2023-05-15T08:32:25;21.67;;;18.30;;
54384;SDS011;40284;52.878;5.998;2023-05-15T08:34:51;21.15;;;19.10;;
54384;SDS011;40284;52.878;5.998;2023-05-15T08:37:17;20.75;;;17.45;;
54384;SDS011;40284;52.878;5.998;2023-05-15T08:39:43;19.52;;;17.45;;
54384;SDS011;40284;52.878;5.998;2023-05-15T08:42:13;21.45;;;17.88;;
54384;SDS011;40284;52.878;5.998;2023-05-15T08:44:44;20.83;;;18.63;;
54384;SDS011;40284;52.878;5.998;2023-05-15T08:47:10;22.05;;;18.05;;
54384;SDS011;40284;52.878;5.998;2023-05-15T08:52:10;25.67;;;19.08;;
54384;SDS011;40284;52.878;5.998;2023-05-15T08:54:36;20.65;;;18.25;;
54384;SDS011;40284;52.878;5.998;2023-05-15T08:57:03;18.30;;;16.50;;
54384;SDS011;40284;52.878;5.998;2023-05-15T08:59:29;19.60;;;17.70;;
54384;SDS011;40284;52.878;5.998;2023-05-15T09:01:56;17.67;;;15.75;;
54384;SDS011;40284;52.878;5.998;2023-05-15T09:04:22;21.02;;;18.40;;
54384;SDS011;40284;52.878;5.998;2023-05-15T09:06:48;22.00;;;19.67;;
54384;SDS011;40284;52.878;5.998;2023-05-15T09:09:14;22.17;;;19.75;;
54384;SDS011;40284;52.878;5.998;2023-05-15T09:11:42;22.90;;;20.17;;
54384;SDS011;40284;52.878;5.998;2023-05-15T09:14:08;21.48;;;19.30;;
54384;SDS011;40284;52.878;5.998;2023-05-15T09:16:35;24.02;;;20.65;;
54384;SDS011;40284;52.878;5.998;2023-05-15T09:19:01;23.15;;;20.67;;
54384;SDS011;40284;52.878;5.998;2023-05-15T09:21:28;27.08;;;22.30;;
54384;SDS011;40284;52.878;5.998;2023-05-15T09:26:42;22.85;;;19.73;;
54384;SDS011;40284;52.878;5.998;2023-05-15T09:29:09;23.85;;;20.70;;
54384;SDS011;40284;52.878;5.998;2023-05-15T09:31:35;21.00;;;18.83;;
54384;SDS011;40284;52.878;5.998;2023-05-15T09:34:01;21.67;;;19.48;;
54384;SDS011;40284;52.878;5.998;2023-05-15T09:36:30;22.00;;;19.67;;
54384;SDS011;40284;52.878;5.998;2023-05-15T09:38:57;21.73;;;19.35;;
54384;SDS011;40284;52.878;5.998;2023-05-15T09:41:24;21.52;;;18.98;;
54384;SDS011;40284;52.878;5.998;2023-05-15T09:43:51;21.00;;;18.63;;
54384;SDS011;40284;52.878;5.998;2023-05-15T09:46:17;24.33;;;19.17;;
54384;SDS011;40284;52.878;5.998;2023-05-15T09:48:43;22.38;;;19.88;;
54384;SDS011;40284;52.878;5.998;2023-05-15T09:51:15;20.10;;;17.88;;
54384;SDS011;40284;52.878;5.998;2023-05-15T09:53:46;21.15;;;19.05;;
54384;SDS011;40284;52.878;5.998;2023-05-15T09:56:13;20.73;;;18.20;;
54384;SDS011;40284;52.878;5.998;2023-05-15T09:58:50;19.48;;;17.55;;
54384;SDS011;40284;52.878;5.998;2023-05-15T10:01:21;18.80;;;16.83;;
54384;SDS011;40284;52.878;5.998;2023-05-15T10:03:57;21.30;;;18.13;;
54384;SDS011;40284;52.878;5.998;2023-05-15T10:06:23;18.92;;;16.50;;
54384;SDS011;40284;52.878;5.998;2023-05-15T10:08:50;19.02;;;16.65;;
54384;SDS011;40284;52.878;5.998;2023-05-15T10:11:17;17.17;;;15.38;;
54384;SDS011;40284;52.878;5.998;2023-05-15T10:13:45;16.30;;;14.30;;
54384;SDS011;40284;52.878;5.998;2023-05-15T10:16:11;17.00;;;15.23;;
54384;SDS011;40284;52.878;5.998;2023-05-15T10:18:39;14.73;;;13.25;;
54384;SDS011;40284;52.878;5.998;2023-05-15T10:21:06;17.70;;;14.32;;
54384;SDS011;40284;52.878;5.998;2023-05-15T10:23:33;13.80;;;12.50;;
54384;SDS011;40284;52.878;5.998;2023-05-15T10:26:06;20.63;;;13.20;;
54384;SDS011;40284;52.878;5.998;2023-05-15T10:30:59;22.60;;;13.07;;
54384;SDS011;40284;52.878;5.998;2023-05-15T10:33:27;17.88;;;13.00;;
54384;SDS011;40284;52.878;5.998;2023-05-15T10:35:55;14.77;;;13.18;;
54384;SDS011;40284;52.878;5.998;2023-05-15T10:38:24;15.98;;;12.80;;
54384;SDS011;40284;52.878;5.998;2023-05-15T10:40:51;14.38;;;12.90;;
54384;SDS011;40284;52.878;5.998;2023-05-15T10:43:18;15.48;;;13.85;;
54384;SDS011;40284;52.878;5.998;2023-05-15T10:45:45;19.35;;;15.30;;
54384;SDS011;40284;52.878;5.998;2023-05-15T10:48:11;14.75;;;13.23;;
54384;SDS011;40284;52.878;5.998;2023-05-15T10:50:38;14.77;;;13.20;;
54384;SDS011;40284;52.878;5.998;2023-05-15T10:53:05;16.00;;;14.25;;
54384;SDS011;40284;52.878;5.998;2023-05-15T10:55:31;14.85;;;13.38;;
54384;SDS011;40284;52.878;5.998;2023-05-15T10:57:57;14.88;;;13.40;;
54384;SDS011;40284;52.878;5.998;2023-05-15T11:00:24;13.93;;;12.25;;
54384;SDS011;40284;52.878;5.998;2023-05-15T11:02:51;18.52;;;13.75;;
54384;SDS011;40284;52.878;5.998;2023-05-15T11:05:20;15.65;;;13.45;;
54384;SDS011;40284;52.878;5.998;2023-05-15T11:10:41;13.73;;;11.98;;
54384;SDS011;40284;52.878;5.998;2023-05-15T11:13:08;13.65;;;12.25;;
54384;SDS011;40284;52.878;5.998;2023-05-15T11:15:42;14.90;;;11.50;;
54384;SDS011;40284;52.878;5.998;2023-05-15T11:18:08;13.07;;;11.20;;
54384;SDS011;40284;52.878;5.998;2023-05-15T11:20:38;12.57;;;11.27;;
54384;SDS011;40284;52.878;5.998;2023-05-15T11:23:05;14.65;;;12.25;;
54384;SDS011;40284;52.878;5.998;2023-05-15T11:25:31;14.23;;;11.63;;
54384;SDS011;40284;52.878;5.998;2023-05-15T11:27:57;12.18;;;10.85;;
54384;SDS011;40284;52.878;5.998;2023-05-15T11:30:36;14.48;;;11.70;;
54384;SDS011;40284;52.878;5.998;2023-05-15T11:33:06;14.23;;;11.63;;
54384;SDS011;40284;52.878;5.998;2023-05-15T11:35:39;14.75;;;10.85;;
54384;SDS011;40284;52.878;5.998;2023-05-15T11:40:43;11.57;;;10.15;;
54384;SDS011;40284;52.878;5.998;2023-05-15T11:43:17;11.55;;;10.40;;
54384;SDS011;40284;52.878;5.998;2023-05-15T11:45:47;11.73;;;9.95;;
54384;SDS011;40284;52.878;5.998;2023-05-15T11:48:14;11.23;;;10.05;;
54384;SDS011;40284;52.878;5.998;2023-05-15T11:50:40;14.23;;;11.30;;
54384;SDS011;40284;52.878;5.998;2023-05-15T11:53:07;12.52;;;11.10;;
54384;SDS011;40284;52.878;5.998;2023-05-15T11:55:34;13.35;;;12.05;;
54384;SDS011;40284;52.878;5.998;2023-05-15T11:58:01;15.02;;;11.27;;
54384;SDS011;40284;52.878;5.998;2023-05-15T12:00:28;13.65;;;12.00;;
54384;SDS011;40284;52.878;5.998;2023-05-15T12:02:54;17.77;;;12.13;;
54384;SDS011;40284;52.878;5.998;2023-05-15T12:05:20;16.30;;;12.82;;
54384;SDS011;40284;52.878;5.998;2023-05-15T12:07:47;14.63;;;13.13;;
54384;SDS011;40284;52.878;5.998;2023-05-15T12:10:13;12.98;;;11.32;;
54384;SDS011;40284;52.878;5.998;2023-05-15T12:12:43;13.82;;;12.05;;
54384;SDS011;40284;52.878;5.998;2023-05-15T12:15:10;14.13;;;11.82;;
54384;SDS011;40284;52.878;5.998;2023-05-15T12:17:37;14.15;;;11.68;;
54384;SDS011;40284;52.878;5.998;2023-05-15T12:20:04;11.00;;;9.90;;
54384;SDS011;40284;52.878;5.998;2023-05-15T12:22:36;13.07;;;11.57;;
54384;SDS011;40284;52.878;5.998;2023-05-15T12:25:03;17.20;;;11.70;;
54384;SDS011;40284;52.878;5.998;2023-05-15T12:27:29;11.38;;;9.90;;
54384;SDS011;40284;52.878;5.998;2023-05-15T12:29:55;11.15;;;9.52;;
54384;SDS011;40284;52.878;5.998;2023-05-15T12:32:21;11.43;;;10.32;;
54384;SDS011;40284;52.878;5.998;2023-05-15T12:34:47;10.65;;;9.65;;
54384;SDS011;40284;52.878;5.998;2023-05-15T12:37:13;11.27;;;9.52;;
54384;SDS011;40284;52.878;5.998;2023-05-15T12:39:53;11.63;;;9.93;;
54384;SDS011;40284;52.878;5.998;2023-05-15T12:42:25;9.75;;;8.75;;
54384;SDS011;40284;52.878;5.998;2023-05-15T12:44:52;14.70;;;10.40;;
54384;SDS011;40284;52.878;5.998;2023-05-15T12:47:22;11.88;;;10.75;;
54384;SDS011;40284;52.878;5.998;2023-05-15T12:49:48;11.80;;;10.57;;
54384;SDS011;40284;52.878;5.998;2023-05-15T12:52:14;13.98;;;10.75;;
54384;SDS011;40284;52.878;5.998;2023-05-15T12:54:42;15.05;;;11.90;;
54384;SDS011;40284;52.878;5.998;2023-05-15T12:57:10;12.55;;;11.30;;
54384;SDS011;40284;52.878;5.998;2023-05-15T12:59:37;15.20;;;12.38;;
54384;SDS011;40284;52.878;5.998;2023-05-15T13:02:04;14.70;;;13.20;;
54384;SDS011;40284;52.878;5.998;2023-05-15T13:04:33;14.20;;;11.40;;
54384;SDS011;40284;52.878;5.998;2023-05-15T13:06:59;12.35;;;11.07;;
54384;SDS011;40284;52.878;5.998;2023-05-15T13:09:25;16.30;;;12.43;;
54384;SDS011;40284;52.878;5.998;2023-05-15T13:11:55;13.02;;;11.73;;
54384;SDS011;40284;52.878;5.998;2023-05-15T13:14:21;14.75;;;13.25;;
54384;SDS011;40284;52.878;5.998;2023-05-15T13:16:51;13.55;;;12.15;;
54384;SDS011;40284;52.878;5.998;2023-05-15T13:19:17;13.35;;;12.00;;
54384;SDS011;40284;52.878;5.998;2023-05-15T13:21:43;16.17;;;14.68;;
54384;SDS011;40284;52.878;5.998;2023-05-15T13:24:10;15.98;;;12.90;;
54384;SDS011;40284;52.878;5.998;2023-05-15T13:26:36;15.25;;;13.13;;
54384;SDS011;40284;52.878;5.998;2023-05-15T13:29:02;15.98;;;13.43;;
54384;SDS011;40284;52.878;5.998;2023-05-15T13:31:28;13.82;;;12.43;;
54384;SDS011;40284;52.878;5.998;2023-05-15T13:33:54;13.40;;;11.50;;
54384;SDS011;40284;52.878;5.998;2023-05-15T13:36:20;15.30;;;11.88;;
54384;SDS011;40284;52.878;5.998;2023-05-15T13:38:46;16.23;;;11.82;;
54384;SDS011;40284;52.878;5.998;2023-05-15T13:41:13;17.40;;;13.65;;
54384;SDS011;40284;52.878;5.998;2023-05-15T13:43:39;14.25;;;12.80;;
54384;SDS011;40284;52.878;5.998;2023-05-15T13:46:05;13.23;;;11.95;;
54384;SDS011;40284;52.878;5.998;2023-05-15T13:48:31;14.77;;;12.05;;
54384;SDS011;40284;52.878;5.998;2023-05-15T13:50:57;16.83;;;13.75;;
54384;SDS011;40284;52.878;5.998;2023-05-15T13:53:23;13.88;;;12.43;;
54384;SDS011;40284;52.878;5.998;2023-05-15T13:55:49;14.35;;;12.85;;
54384;SDS011;40284;52.878;5.998;2023-05-15T13:58:15;15.23;;;13.13;;
54384;SDS011;40284;52.878;5.998;2023-05-15T14:00:42;19.33;;;14.15;;
54384;SDS011;40284;52.878;5.998;2023-05-15T14:03:08;15.85;;;13.52;;
54384;SDS011;40284;52.878;5.998;2023-05-15T14:05:34;19.65;;;13.02;;
54384;SDS011;40284;52.878;5.998;2023-05-15T14:08:01;17.10;;;13.30;;
54384;SDS011;40284;52.878;5.998;2023-05-15T14:10:27;14.35;;;12.15;;
54384;SDS011;40284;52.878;5.998;2023-05-15T14:12:54;16.13;;;14.45;;
54384;SDS011;40284;52.878;5.998;2023-05-15T14:15:20;17.23;;;14.27;;
54384;SDS011;40284;52.878;5.998;2023-05-15T14:17:46;15.55;;;13.77;;
54384;SDS011;40284;52.878;5.998;2023-05-15T14:20:13;14.30;;;12.90;;
54384;SDS011;40284;52.878;5.998;2023-05-15T14:22:39;16.50;;;14.63;;
54384;SDS011;40284;52.878;5.998;2023-05-15T14:25:06;19.63;;;16.02;;
54384;SDS011;40284;52.878;5.998;2023-05-15T14:27:32;17.85;;;16.05;;
54384;SDS011;40284;52.878;5.998;2023-05-15T14:29:59;18.02;;;16.23;;
54384;SDS011;40284;52.878;5.998;2023-05-15T14:32:25;17.80;;;15.95;;
54384;SDS011;40284;52.878;5.998;2023-05-15T14:34:51;18.67;;;16.58;;
54384;SDS011;40284;52.878;5.998;2023-05-15T14:37:17;21.63;;;17.63;;
54384;SDS011;40284;52.878;5.998;2023-05-15T14:39:43;17.45;;;15.65;;
54384;SDS011;40284;52.878;5.998;2023-05-15T14:42:10;18.33;;;16.38;;
54384;SDS011;40284;52.878;5.998;2023-05-15T14:44:36;20.13;;;17.13;;